West Alton, MO (63386)

1:11 AM CST on November 24, 2014 (GMT -0600)
Alton - Beacon | Change Station
CLOSE
Current Station
Personal Weather Station
Location: Alton, IL
Elevation: 530 ft
Nearby Weather Stations

Elev 530 ft 38.89 °N, 90.19 °W | Updated 4 seconds ago

Rain
Rain
54.0 °F
Feels Like 54.0 °F
N
0.9
Wind Variable Wind from East
Gusts 1.0 mph

Today
High -- | Low -- °F
--% Chance of Precip.
Yesterday
High -- | Low -- °F
Precip. -- in
6:53 AM 4:41 PM
Waxing Crescent, 4% visible
Pressure 29.18 in
Visibility 2.0 miles
Clouds Overcast 500 ft
Dew Point 53 °F
Humidity 98%
Rainfall 0.27 in
Snow Depth Not available.
UV 0 out of 12
Pollen .40 out of 12
Air Quality Not available.
Flu Activity Not available.
METAR KALN 240655Z AUTO 20004KT 2SM +VCTSRA OVC005 12/12 A2918 RMK AO2 P0016 T01220117

More Conditions Fewer Conditions

Pressure 29.18 in
Visibility 2.0 miles
Clouds Overcast 500 ft
Dew Point 53 °F
Humidity 98%
Rainfall 0.27 in
Snow Depth Not available.
UV 0 out of 12
Pollen .40 out of 12
Air Quality Not available.
Flu Activity Not available.
METAR KALN 240655Z AUTO 20004KT 2SM +VCTSRA OVC005 12/12 A2918 RMK AO2 P0016 T01220117

More Conditions Fewer Conditions

10-Day Weather Forecast

Almanac

Astronomy

Nov. 24, 2014 Rise Set
Actual Time
Civil Twilight
Nautical Twilight
Astronomical Twilight
Moon
Length of Visible Light
Length of Day
Tomorrow will be .
, % of the Moon is Illuminated

Today's Extremes

State Highs State Lows

Community

WunderPhotos

Upload Photos

1,773,295 photos uploaded!

WunderBlogs® & News

Nearby

Air Quality

  Air Quality AQ Index Pollutant
Not available.

Snow Depth

Station Depth Elevation

Earthquake Activity

City Distance Mag. Time & Date
Minimum magnitude displayed is 2.5.

Coastal Water Temperatures

Place Temperature

Nearby Weather Stations